Time;durP1;ratioP1;P1;durP2;ratioP2;P2;SDS_P1;SDS_P2;PMS_P1;PMS_P2;Temp;Humidity;BMP_temperature;BMP_pressure;BME280_temperature;BME280_humidity;BME280_pressure;Samples;Min_cycle;Max_cycle;Signal;HPM_P1;HPM_P2
2021/09/28 00:13:42;;;;;;;6.73;3.60;;;;;;;11.20;98.24;101081.48;713975;1176;113767;-75
2021/09/28 00:28:44;;;;;;;5.43;4.08;;;;;;;11.09;99.74;101088.39;714163;1205;115516;-75
2021/09/28 00:43:53;;;;;;;8.73;6.78;;;;;;;10.98;99.68;101083.16;714733;1205;114528;-74
2021/09/28 00:59:00;;;;;;;15.80;12.05;;;;;;;10.81;100.00;101089.70;714171;1200;115069;-77
2021/09/28 01:14:03;;;;;;;8.63;6.15;;;;;;;10.72;100.00;101083.34;714064;1200;114145;-75
2021/09/28 01:29:07;;;;;;;4.88;3.83;;;;;;;10.53;100.00;101075.20;714384;1200;115538;-74
2021/09/28 01:44:12;;;;;;;5.30;4.10;;;;;;;10.33;100.00;101074.86;714062;1203;114203;-74
2021/09/28 01:59:14;;;;;;;8.88;5.10;;;;;;;10.20;100.00;101071.48;713892;1200;114599;-74
2021/09/28 02:14:17;;;;;;;5.48;4.83;;;;;;;10.13;100.00;101073.73;714087;1202;113760;-75
2021/09/28 02:29:19;;;;;;;9.80;5.80;;;;;;;10.04;100.00;101069.16;714321;1200;114534;-75
2021/09/28 02:44:21;;;;;;;21.85;9.28;;;;;;;9.94;100.00;101063.77;714035;1177;113651;-75
2021/09/28 02:59:23;;;;;;;16.80;9.18;;;;;;;9.94;100.00;101069.01;714178;1200;113728;-76
2021/09/28 03:14:27;;;;;;;11.15;5.85;;;;;;;9.77;100.00;101060.58;714947;1200;114057;-76
2021/09/28 03:29:29;;;;;;;10.30;5.10;;;;;;;9.71;100.00;101058.39;715821;1202;113773;-74
2021/09/28 03:44:31;;;;;;;11.05;5.00;;;;;;;9.60;100.00;101077.50;714496;1204;114724;-75
2021/09/28 03:59:33;;;;;;;11.53;6.03;;;;;;;9.34;100.00;101066.25;714245;1202;114290;-75
2021/09/28 04:14:36;;;;;;;21.25;9.90;;;;;;;9.22;100.00;101069.74;714634;1200;113928;-75
2021/09/28 04:29:39;;;;;;;18.17;9.10;;;;;;;9.21;100.00;101097.72;715258;1200;114052;-74
2021/09/28 04:44:42;;;;;;;12.80;7.58;;;;;;;9.15;100.00;101104.19;715438;1202;114167;-75
2021/09/28 04:59:44;;;;;;;13.70;8.90;;;;;;;9.35;100.00;101112.45;715104;1180;114018;-75
2021/09/28 05:14:46;;;;;;;8.37;5.90;;;;;;;9.51;100.00;101116.63;714294;1201;114943;-75
2021/09/28 05:29:48;;;;;;;10.18;7.10;;;;;;;9.74;100.00;101131.55;714174;1201;114349;-75
2021/09/28 05:44:50;;;;;;;8.43;5.65;;;;;;;10.09;100.00;101135.20;714123;1176;114662;-75
2021/09/28 05:59:52;;;;;;;12.97;6.77;;;;;;;10.52;100.00;101152.22;714231;1201;114611;-79
2021/09/28 06:14:55;;;;;;;5.97;3.97;;;;;;;11.24;100.00;101165.15;714721;1203;114184;-79
2021/09/28 06:29:57;;;;;;;15.75;6.98;;;;;;;12.17;100.00;101164.97;714784;1204;115099;-73
2021/09/28 06:45:00;;;;;;;9.83;6.23;;;;;;;12.94;100.00;101193.70;715459;1202;114967;-82
2021/09/28 07:00:07;;;;;;;8.43;4.00;;;;;;;13.86;99.33;101213.20;714467;1177;114902;-78
2021/09/28 07:15:10;;;;;;;7.25;4.05;;;;;;;14.18;95.00;101221.89;714880;1176;113924;-78
2021/09/28 07:30:12;;;;;;;7.55;3.78;;;;;;;13.90;93.88;101229.60;714779;1201;115198;-80
2021/09/28 07:45:15;;;;;;;5.38;3.50;;;;;;;14.87;91.06;101228.07;714560;1176;113755;-81
2021/09/28 08:00:17;;;;;;;3.90;2.93;;;;;;;15.20;87.73;101234.68;714361;1203;115191;-81
2021/09/28 08:15:20;;;;;;;4.30;3.10;;;;;;;15.78;86.89;101246.05;714211;1177;114652;-81
2021/09/28 08:30:22;;;;;;;3.58;2.68;;;;;;;16.19;81.66;101249.21;714812;1178;115119;-81
2021/09/28 08:45:24;;;;;;;5.40;2.65;;;;;;;16.67;80.91;101239.28;714574;1202;113843;-81
2021/09/28 09:00:27;;;;;;;3.40;2.60;;;;;;;17.26;77.24;101244.89;714591;1205;115357;-81
2021/09/28 09:15:34;;;;;;;3.48;2.35;;;;;;;17.09;74.62;101233.34;714519;1202;113780;-78
2021/09/28 09:30:37;;;;;;;6.55;2.45;;;;;;;18.38;73.38;101214.83;715985;1175;113907;-81
2021/09/28 09:45:39;;;;;;;4.10;2.48;;;;;;;18.29;69.76;101238.73;717211;1202;114808;-79
2021/09/28 10:00:41;;;;;;;3.18;2.18;;;;;;;17.79;68.85;101237.70;714503;1200;113835;-80
2021/09/28 10:15:44;;;;;;;4.30;2.10;;;;;;;18.24;68.61;101242.88;714870;1181;113859;-80
2021/09/28 10:30:47;;;;;;;6.03;2.13;;;;;;;19.03;66.72;101245.95;714524;1203;114045;-79
2021/09/28 10:45:50;;;;;;;6.93;2.67;;;;;;;19.26;65.48;101242.59;714114;1205;114047;-81
2021/09/28 11:00:52;;;;;;;8.93;1.93;;;;;;;19.39;63.75;101240.22;714170;1193;114197;-77
2021/09/28 11:15:59;;;;;;;6.35;2.38;;;;;;;19.21;63.41;101236.94;714633;1177;116855;-76
2021/09/28 11:31:04;;;;;;;5.83;3.07;;;;;;;19.63;62.29;101233.17;715552;1202;114366;-83
2021/09/28 11:46:10;;;;;;;7.78;3.13;;;;;;;19.70;61.72;101234.13;714292;1202;115556;-76
2021/09/28 12:01:14;;;;;;;4.95;2.55;;;;;;;19.69;60.86;101237.81;716229;1202;114608;-76
2021/09/28 12:16:20;;;;;;;2.68;1.90;;;;;;;20.89;59.55;101235.77;714409;1202;114746;-76
2021/09/28 12:31:37;;;;;;;5.98;2.30;;;;;;;21.84;57.98;101238.80;714368;1205;113789;-83
2021/09/28 12:46:40;;;;;;;3.97;2.30;;;;;;;21.26;56.86;101231.41;716267;1201;114099;-83
2021/09/28 13:01:48;;;;;;;14.57;7.57;;;;;;;20.81;57.43;101241.19;714035;1200;114978;-79
2021/09/28 13:16:50;;;;;;;6.33;3.33;;;;;;;20.76;57.96;101242.56;713827;1200;115224;-76
2021/09/28 13:31:52;;;;;;;6.50;3.13;;;;;;;22.93;56.11;101241.34;713995;1200;114182;-77
2021/09/28 13:46:54;;;;;;;4.23;2.80;;;;;;;25.02;51.30;101251.01;713983;1195;114916;-77
2021/09/28 14:01:57;;;;;;;4.48;3.20;;;;;;;26.46;49.69;101253.63;713681;1202;114097;-76
2021/09/28 14:16:59;;;;;;;43.33;19.77;;;;;;;23.28;50.68;101262.02;714224;1200;113798;-86
2021/09/28 14:32:02;;;;;;;8.80;5.73;;;;;;;20.39;54.77;101262.79;714125;1205;114957;-84
2021/09/28 14:47:04;;;;;;;35.33;19.73;;;;;;;20.09;56.76;101261.80;714245;1203;113970;-83
2021/09/28 15:02:06;;;;;;;62.23;52.67;;;;;;;19.33;58.30;101272.81;714080;1203;114404;-73
2021/09/28 15:17:09;;;;;;;15.83;9.97;;;;;;;18.29;60.30;101273.25;714246;1202;114416;-73
2021/09/28 15:32:17;;;;;;;80.10;29.40;;;;;;;17.86;62.18;101268.93;714023;1205;114721;-77
2021/09/28 15:47:19;;;;;;;96.80;34.90;;;;;;;18.20;63.50;101274.23;713986;1177;115554;-77
2021/09/28 16:02:22;;;;;;;91.05;27.13;;;;;;;17.84;63.76;101286.82;714394;1203;115048;-81
2021/09/28 16:17:24;;;;;;;89.78;25.88;;;;;;;16.85;65.36;101299.37;714082;1200;114239;-79
2021/09/28 16:32:26;;;;;;;70.43;24.25;;;;;;;16.16;67.29;101299.81;714297;1205;114519;-74
2021/09/28 16:47:28;;;;;;;88.40;31.83;;;;;;;15.51;68.34;101303.23;714102;1203;114730;-76
2021/09/28 17:02:30;;;;;;;20.28;11.08;;;;;;;15.17;69.75;101332.77;714071;1202;114763;-75
2021/09/28 17:17:35;;;;;;;17.83;11.57;;;;;;;14.84;70.93;101336.66;714269;1178;114179;-75
2021/09/28 17:32:37;;;;;;;12.20;8.05;;;;;;;14.57;72.16;101353.94;714156;1200;114932;-74
2021/09/28 17:47:40;;;;;;;24.88;12.28;;;;;;;14.24;73.94;101361.19;714331;1205;115563;-74
2021/09/28 18:02:42;;;;;;;116.63;36.40;;;;;;;13.89;75.34;101354.52;714852;1178;114102;-74
2021/09/28 18:17:44;;;;;;;15.48;9.23;;;;;;;13.56;76.91;101364.32;714197;1200;115144;-73
2021/09/28 18:32:47;;;;;;;13.13;7.60;;;;;;;13.44;78.26;101374.09;714193;1205;115224;-76
2021/09/28 18:47:49;;;;;;;33.17;18.30;;;;;;;13.32;79.21;101382.00;714212;1205;114868;-74
2021/09/28 19:02:54;;;;;;;42.90;20.15;;;;;;;13.14;79.60;101370.34;714105;1200;114299;-75
2021/09/28 19:17:58;;;;;;;16.43;8.53;;;;;;;12.93;80.78;101371.14;714114;1202;114310;-74
2021/09/28 19:33:00;;;;;;;19.67;9.87;;;;;;;12.78;82.00;101367.93;714223;1193;113944;-74
2021/09/28 19:48:03;;;;;;;18.27;9.40;;;;;;;12.68;83.76;101358.27;714043;1177;114352;-74
2021/09/28 20:48:53;;;;;;;24.47;8.43;;;;;;;12.13;87.50;101393.23;714040;1177;115404;-75
2021/09/28 21:03:55;;;;;;;22.98;9.13;;;;;;;12.01;88.00;101394.16;713907;1202;114008;-74
2021/09/28 21:18:58;;;;;;;17.18;7.15;;;;;;;11.79;88.95;101380.83;714585;1176;114525;-73
2021/09/28 21:34:05;;;;;;;19.48;7.95;;;;;;;11.56;90.99;101389.60;714861;1200;114045;-74
2021/09/28 21:49:06;;;;;;;21.23;8.13;;;;;;;11.37;91.40;101400.66;714629;1200;115347;-76
2021/09/28 22:04:09;;;;;;;11.75;6.63;;;;;;;11.13;92.75;101393.63;714566;1200;114269;-73
2021/09/28 22:19:12;;;;;;;13.30;6.08;;;;;;;10.93;93.41;101398.52;714599;1200;114420;-73
2021/09/28 22:34:14;;;;;;;11.85;6.40;;;;;;;10.79;94.58;101402.13;714129;1202;115319;-73
2021/09/28 22:49:16;;;;;;;27.13;11.10;;;;;;;10.71;95.79;101409.71;714051;1201;114095;-73
2021/09/28 23:04:19;;;;;;;20.77;7.83;;;;;;;10.58;96.52;101406.28;714372;1200;114376;-74
2021/09/28 23:19:21;;;;;;;13.80;6.73;;;;;;;10.46;97.69;101413.22;714088;1200;113963;-74
2021/09/28 23:34:25;;;;;;;9.73;5.95;;;;;;;10.35;98.00;101408.73;714386;1176;114149;-74
2021/09/28 23:49:27;;;;;;;12.18;6.43;;;;;;;10.28;98.61;101418.78;714248;1178;114216;-74
